sensor_id;sensor_type;location;lat;lon;timestamp;temperature;humidity
30899;DHT22;17914;52.484;13.424;2024-02-16T00:02:25;21.00;56.40
30899;DHT22;17914;52.484;13.424;2024-02-16T00:04:53;21.00;56.30
30899;DHT22;17914;52.484;13.424;2024-02-16T00:07:23;21.00;56.30
30899;DHT22;17914;52.484;13.424;2024-02-16T00:09:51;21.00;56.30
30899;DHT22;17914;52.484;13.424;2024-02-16T00:12:19;21.00;56.90
30899;DHT22;17914;52.484;13.424;2024-02-16T00:14:48;21.00;56.30
30899;DHT22;17914;52.484;13.424;2024-02-16T00:17:16;21.00;56.30
30899;DHT22;17914;52.484;13.424;2024-02-16T00:19:44;21.00;56.30
30899;DHT22;17914;52.484;13.424;2024-02-16T00:22:12;21.00;56.30
30899;DHT22;17914;52.484;13.424;2024-02-16T00:24:42;21.00;56.50
30899;DHT22;17914;52.484;13.424;2024-02-16T00:27:10;21.00;56.40
30899;DHT22;17914;52.484;13.424;2024-02-16T00:29:38;21.00;56.50
30899;DHT22;17914;52.484;13.424;2024-02-16T00:32:07;21.00;56.40
30899;DHT22;17914;52.484;13.424;2024-02-16T00:34:36;21.00;56.40
30899;DHT22;17914;52.484;13.424;2024-02-16T00:37:06;20.90;56.30
30899;DHT22;17914;52.484;13.424;2024-02-16T00:39:36;20.90;56.30
30899;DHT22;17914;52.484;13.424;2024-02-16T00:42:06;20.90;56.30
30899;DHT22;17914;52.484;13.424;2024-02-16T00:44:34;20.90;56.40
30899;DHT22;17914;52.484;13.424;2024-02-16T00:47:02;20.90;56.90
30899;DHT22;17914;52.484;13.424;2024-02-16T00:49:32;20.90;56.30
30899;DHT22;17914;52.484;13.424;2024-02-16T00:52:01;20.90;56.30
30899;DHT22;17914;52.484;13.424;2024-02-16T00:54:29;20.80;56.10
30899;DHT22;17914;52.484;13.424;2024-02-16T00:56:57;20.80;56.90
30899;DHT22;17914;52.484;13.424;2024-02-16T00:59:31;20.80;56.40
30899;DHT22;17914;52.484;13.424;2024-02-16T01:01:59;20.80;56.30
30899;DHT22;17914;52.484;13.424;2024-02-16T01:04:27;20.80;56.30
30899;DHT22;17914;52.484;13.424;2024-02-16T01:06:56;20.80;56.30
30899;DHT22;17914;52.484;13.424;2024-02-16T01:09:24;20.80;56.30
30899;DHT22;17914;52.484;13.424;2024-02-16T01:11:53;20.80;56.30
30899;DHT22;17914;52.484;13.424;2024-02-16T01:14:21;20.80;56.30
30899;DHT22;17914;52.484;13.424;2024-02-16T01:16:51;20.80;56.70
30899;DHT22;17914;52.484;13.424;2024-02-16T01:19:19;20.80;56.30
30899;DHT22;17914;52.484;13.424;2024-02-16T01:21:47;20.80;56.30
30899;DHT22;17914;52.484;13.424;2024-02-16T01:24:19;20.80;56.20
30899;DHT22;17914;52.484;13.424;2024-02-16T01:26:48;20.80;56.20
30899;DHT22;17914;52.484;13.424;2024-02-16T01:29:16;20.80;56.70
30899;DHT22;17914;52.484;13.424;2024-02-16T01:31:44;20.70;56.10
30899;DHT22;17914;52.484;13.424;2024-02-16T01:34:14;20.80;56.20
30899;DHT22;17914;52.484;13.424;2024-02-16T01:36:42;20.70;56.20
30899;DHT22;17914;52.484;13.424;2024-02-16T01:39:10;20.70;56.10
30899;DHT22;17914;52.484;13.424;2024-02-16T01:41:38;20.60;56.30
30899;DHT22;17914;52.484;13.424;2024-02-16T01:44:07;20.60;56.40
30899;DHT22;17914;52.484;13.424;2024-02-16T01:46:36;20.60;56.30
30899;DHT22;17914;52.484;13.424;2024-02-16T01:49:04;20.60;56.20
30899;DHT22;17914;52.484;13.424;2024-02-16T01:51:34;20.50;56.30
30899;DHT22;17914;52.484;13.424;2024-02-16T01:54:02;20.60;56.30
30899;DHT22;17914;52.484;13.424;2024-02-16T01:56:30;20.60;56.30
30899;DHT22;17914;52.484;13.424;2024-02-16T01:58:58;20.60;56.20
30899;DHT22;17914;52.484;13.424;2024-02-16T02:01:26;20.50;56.10
30899;DHT22;17914;52.484;13.424;2024-02-16T02:03:54;20.50;55.90
30899;DHT22;17914;52.484;13.424;2024-02-16T02:06:22;20.50;56.80
30899;DHT22;17914;52.484;13.424;2024-02-16T02:08:52;20.50;56.20
30899;DHT22;17914;52.484;13.424;2024-02-16T02:11:20;20.40;56.20
30899;DHT22;17914;52.484;13.424;2024-02-16T02:13:50;20.40;56.20
30899;DHT22;17914;52.484;13.424;2024-02-16T02:16:19;20.30;56.10
30899;DHT22;17914;52.484;13.424;2024-02-16T02:18:48;20.30;56.00
30899;DHT22;17914;52.484;13.424;2024-02-16T02:21:17;20.30;56.00
30899;DHT22;17914;52.484;13.424;2024-02-16T02:23:46;20.20;56.00
30899;DHT22;17914;52.484;13.424;2024-02-16T02:26:14;20.20;56.10
30899;DHT22;17914;52.484;13.424;2024-02-16T02:28:43;20.20;56.10
30899;DHT22;17914;52.484;13.424;2024-02-16T02:31:11;20.20;55.90
30899;DHT22;17914;52.484;13.424;2024-02-16T02:33:39;20.10;56.20
30899;DHT22;17914;52.484;13.424;2024-02-16T02:36:08;20.10;56.10
30899;DHT22;17914;52.484;13.424;2024-02-16T02:38:36;20.10;56.20
30899;DHT22;17914;52.484;13.424;2024-02-16T02:41:05;20.10;56.00
30899;DHT22;17914;52.484;13.424;2024-02-16T02:43:34;20.10;55.90
30899;DHT22;17914;52.484;13.424;2024-02-16T02:46:02;20.10;56.10
30899;DHT22;17914;52.484;13.424;2024-02-16T02:48:30;20.00;55.90
30899;DHT22;17914;52.484;13.424;2024-02-16T02:50:59;20.00;56.00
30899;DHT22;17914;52.484;13.424;2024-02-16T02:53:28;20.00;56.10
30899;DHT22;17914;52.484;13.424;2024-02-16T02:55:56;20.00;56.20
30899;DHT22;17914;52.484;13.424;2024-02-16T02:58:25;20.00;56.20
30899;DHT22;17914;52.484;13.424;2024-02-16T03:00:53;20.00;56.00
30899;DHT22;17914;52.484;13.424;2024-02-16T03:03:22;20.00;55.80
30899;DHT22;17914;52.484;13.424;2024-02-16T03:05:50;20.00;55.80
30899;DHT22;17914;52.484;13.424;2024-02-16T03:08:18;20.00;56.40
30899;DHT22;17914;52.484;13.424;2024-02-16T03:10:46;19.90;55.80
30899;DHT22;17914;52.484;13.424;2024-02-16T03:13:14;19.90;56.00
30899;DHT22;17914;52.484;13.424;2024-02-16T03:15:46;19.90;55.90
30899;DHT22;17914;52.484;13.424;2024-02-16T03:18:14;20.00;56.00
30899;DHT22;17914;52.484;13.424;2024-02-16T03:20:43;20.00;55.80
30899;DHT22;17914;52.484;13.424;2024-02-16T03:23:13;20.00;55.70
30899;DHT22;17914;52.484;13.424;2024-02-16T03:25:41;20.00;55.80
30899;DHT22;17914;52.484;13.424;2024-02-16T03:28:11;20.00;55.50
30899;DHT22;17914;52.484;13.424;2024-02-16T03:30:39;20.00;55.50
30899;DHT22;17914;52.484;13.424;2024-02-16T03:33:09;20.00;55.80
30899;DHT22;17914;52.484;13.424;2024-02-16T03:35:38;20.00;55.50
30899;DHT22;17914;52.484;13.424;2024-02-16T03:38:06;20.00;55.50
30899;DHT22;17914;52.484;13.424;2024-02-16T03:40:35;19.90;55.40
30899;DHT22;17914;52.484;13.424;2024-02-16T03:43:03;19.90;56.00
30899;DHT22;17914;52.484;13.424;2024-02-16T03:45:32;19.90;55.60
30899;DHT22;17914;52.484;13.424;2024-02-16T03:48:00;19.80;55.60
30899;DHT22;17914;52.484;13.424;2024-02-16T03:50:30;19.90;55.40
30899;DHT22;17914;52.484;13.424;2024-02-16T03:52:58;19.80;55.40
30899;DHT22;17914;52.484;13.424;2024-02-16T03:55:26;19.80;55.40
30899;DHT22;17914;52.484;13.424;2024-02-16T03:57:55;19.80;55.50
30899;DHT22;17914;52.484;13.424;2024-02-16T04:00:23;19.80;55.40
30899;DHT22;17914;52.484;13.424;2024-02-16T04:02:51;19.90;55.50
30899;DHT22;17914;52.484;13.424;2024-02-16T04:05:19;19.90;55.40
30899;DHT22;17914;52.484;13.424;2024-02-16T04:07:48;19.90;55.60
30899;DHT22;17914;52.484;13.424;2024-02-16T04:10:16;19.80;55.50
30899;DHT22;17914;52.484;13.424;2024-02-16T04:12:45;19.80;55.40
30899;DHT22;17914;52.484;13.424;2024-02-16T04:15:13;19.80;55.40
30899;DHT22;17914;52.484;13.424;2024-02-16T04:17:41;19.80;55.60
30899;DHT22;17914;52.484;13.424;2024-02-16T04:20:10;19.80;55.40
30899;DHT22;17914;52.484;13.424;2024-02-16T04:22:38;19.80;55.50
30899;DHT22;17914;52.484;13.424;2024-02-16T04:25:08;19.80;55.40
30899;DHT22;17914;52.484;13.424;2024-02-16T04:27:36;19.80;55.30
30899;DHT22;17914;52.484;13.424;2024-02-16T04:30:06;19.80;55.10
30899;DHT22;17914;52.484;13.424;2024-02-16T04:32:34;19.80;55.10
30899;DHT22;17914;52.484;13.424;2024-02-16T04:35:02;19.80;55.30
30899;DHT22;17914;52.484;13.424;2024-02-16T04:37:31;19.70;55.30
30899;DHT22;17914;52.484;13.424;2024-02-16T04:39:59;19.70;55.30
30899;DHT22;17914;52.484;13.424;2024-02-16T04:42:28;19.70;55.40
30899;DHT22;17914;52.484;13.424;2024-02-16T04:44:56;19.70;55.30
30899;DHT22;17914;52.484;13.424;2024-02-16T04:47:27;19.80;55.30
30899;DHT22;17914;52.484;13.424;2024-02-16T04:49:55;19.80;55.10
30899;DHT22;17914;52.484;13.424;2024-02-16T04:52:23;19.80;55.00
30899;DHT22;17914;52.484;13.424;2024-02-16T04:54:56;19.80;54.90
30899;DHT22;17914;52.484;13.424;2024-02-16T04:57:24;19.70;55.00
30899;DHT22;17914;52.484;13.424;2024-02-16T04:59:53;19.70;54.90
30899;DHT22;17914;52.484;13.424;2024-02-16T05:02:21;19.70;55.20
30899;DHT22;17914;52.484;13.424;2024-02-16T05:04:49;19.70;55.10
30899;DHT22;17914;52.484;13.424;2024-02-16T05:07:17;19.70;54.90
30899;DHT22;17914;52.484;13.424;2024-02-16T05:09:46;19.70;55.30
30899;DHT22;17914;52.484;13.424;2024-02-16T05:12:16;19.70;55.20
30899;DHT22;17914;52.484;13.424;2024-02-16T05:14:48;19.70;55.00
30899;DHT22;17914;52.484;13.424;2024-02-16T05:17:18;19.70;55.00
30899;DHT22;17914;52.484;13.424;2024-02-16T05:19:46;19.70;55.00
30899;DHT22;17914;52.484;13.424;2024-02-16T05:22:15;19.70;55.10
30899;DHT22;17914;52.484;13.424;2024-02-16T05:24:44;19.80;55.10
30899;DHT22;17914;52.484;13.424;2024-02-16T05:27:13;19.80;55.00
30899;DHT22;17914;52.484;13.424;2024-02-16T05:29:41;19.80;55.10
30899;DHT22;17914;52.484;13.424;2024-02-16T05:32:09;19.80;55.00
30899;DHT22;17914;52.484;13.424;2024-02-16T05:34:38;19.90;55.00
30899;DHT22;17914;52.484;13.424;2024-02-16T05:37:07;19.90;54.40
30899;DHT22;17914;52.484;13.424;2024-02-16T05:39:36;19.80;54.70
30899;DHT22;17914;52.484;13.424;2024-02-16T05:42:20;19.70;54.80
30899;DHT22;17914;52.484;13.424;2024-02-16T05:44:49;19.70;55.00
30899;DHT22;17914;52.484;13.424;2024-02-16T05:47:18;19.70;54.90
30899;DHT22;17914;52.484;13.424;2024-02-16T05:49:48;19.60;55.10
30899;DHT22;17914;52.484;13.424;2024-02-16T05:52:17;19.50;55.10
30899;DHT22;17914;52.484;13.424;2024-02-16T05:54:45;19.50;55.30
30899;DHT22;17914;52.484;13.424;2024-02-16T05:57:13;19.50;55.30
30899;DHT22;17914;52.484;13.424;2024-02-16T05:59:41;19.50;55.20
30899;DHT22;17914;52.484;13.424;2024-02-16T06:02:10;19.50;55.30
30899;DHT22;17914;52.484;13.424;2024-02-16T06:04:38;19.50;55.30
30899;DHT22;17914;52.484;13.424;2024-02-16T06:07:08;19.60;55.10
30899;DHT22;17914;52.484;13.424;2024-02-16T06:09:38;19.60;55.00
30899;DHT22;17914;52.484;13.424;2024-02-16T06:12:06;19.60;55.00
30899;DHT22;17914;52.484;13.424;2024-02-16T06:14:36;19.60;55.00
30899;DHT22;17914;52.484;13.424;2024-02-16T06:17:04;19.60;55.00
30899;DHT22;17914;52.484;13.424;2024-02-16T06:19:32;19.60;54.70
30899;DHT22;17914;52.484;13.424;2024-02-16T06:22:00;19.60;54.80
30899;DHT22;17914;52.484;13.424;2024-02-16T06:24:30;19.50;54.90
30899;DHT22;17914;52.484;13.424;2024-02-16T06:26:58;19.50;55.10
30899;DHT22;17914;52.484;13.424;2024-02-16T06:29:26;19.40;55.20
30899;DHT22;17914;52.484;13.424;2024-02-16T06:31:54;19.40;55.20
30899;DHT22;17914;52.484;13.424;2024-02-16T06:34:22;19.40;55.10
30899;DHT22;17914;52.484;13.424;2024-02-16T06:36:51;19.40;55.00
30899;DHT22;17914;52.484;13.424;2024-02-16T06:39:19;19.40;55.10
30899;DHT22;17914;52.484;13.424;2024-02-16T06:41:49;19.40;55.20
30899;DHT22;17914;52.484;13.424;2024-02-16T06:44:17;19.40;55.00
30899;DHT22;17914;52.484;13.424;2024-02-16T06:46:49;19.40;55.20
30899;DHT22;17914;52.484;13.424;2024-02-16T06:49:17;19.40;55.30
30899;DHT22;17914;52.484;13.424;2024-02-16T06:51:45;19.40;55.20
30899;DHT22;17914;52.484;13.424;2024-02-16T06:54:13;19.50;55.00
30899;DHT22;17914;52.484;13.424;2024-02-16T06:56:42;19.50;54.70
30899;DHT22;17914;52.484;13.424;2024-02-16T06:59:12;19.50;54.80
30899;DHT22;17914;52.484;13.424;2024-02-16T07:01:40;19.50;55.00
30899;DHT22;17914;52.484;13.424;2024-02-16T07:04:08;19.60;54.80
30899;DHT22;17914;52.484;13.424;2024-02-16T07:06:37;19.60;54.90
30899;DHT22;17914;52.484;13.424;2024-02-16T07:09:05;19.50;55.30
30899;DHT22;17914;52.484;13.424;2024-02-16T07:11:33;19.50;55.00
30899;DHT22;17914;52.484;13.424;2024-02-16T07:14:02;19.50;55.00
30899;DHT22;17914;52.484;13.424;2024-02-16T07:16:34;19.50;54.90
30899;DHT22;17914;52.484;13.424;2024-02-16T07:19:02;19.60;54.80
30899;DHT22;17914;52.484;13.424;2024-02-16T07:21:32;19.60;54.70
30899;DHT22;17914;52.484;13.424;2024-02-16T07:24:00;19.60;54.70
30899;DHT22;17914;52.484;13.424;2024-02-16T07:26:28;19.70;54.80
30899;DHT22;17914;52.484;13.424;2024-02-16T07:28:57;19.70;54.70
30899;DHT22;17914;52.484;13.424;2024-02-16T07:31:25;19.70;54.40
30899;DHT22;17914;52.484;13.424;2024-02-16T07:33:54;19.70;54.50
30899;DHT22;17914;52.484;13.424;2024-02-16T07:36:22;19.80;54.60
30899;DHT22;17914;52.484;13.424;2024-02-16T07:38:50;19.80;54.50
30899;DHT22;17914;52.484;13.424;2024-02-16T07:41:18;19.80;54.60
30899;DHT22;17914;52.484;13.424;2024-02-16T07:43:46;19.90;54.50
30899;DHT22;17914;52.484;13.424;2024-02-16T07:46:14;19.90;54.50
30899;DHT22;17914;52.484;13.424;2024-02-16T07:48:43;19.90;54.40
30899;DHT22;17914;52.484;13.424;2024-02-16T07:51:12;19.90;54.50
30899;DHT22;17914;52.484;13.424;2024-02-16T07:53:40;19.90;54.50
30899;DHT22;17914;52.484;13.424;2024-02-16T07:56:11;20.00;54.40
30899;DHT22;17914;52.484;13.424;2024-02-16T07:58:41;20.00;54.40
30899;DHT22;17914;52.484;13.424;2024-02-16T08:01:12;20.10;54.10
30899;DHT22;17914;52.484;13.424;2024-02-16T08:03:42;20.00;54.10
30899;DHT22;17914;52.484;13.424;2024-02-16T08:06:11;20.00;54.10
30899;DHT22;17914;52.484;13.424;2024-02-16T08:08:40;20.10;54.40
30899;DHT22;17914;52.484;13.424;2024-02-16T08:11:08;20.10;54.40
30899;DHT22;17914;52.484;13.424;2024-02-16T08:13:36;20.10;54.60
30899;DHT22;17914;52.484;13.424;2024-02-16T08:16:04;20.10;54.20
30899;DHT22;17914;52.484;13.424;2024-02-16T08:18:33;20.10;54.40
30899;DHT22;17914;52.484;13.424;2024-02-16T08:21:02;20.20;54.40
30899;DHT22;17914;52.484;13.424;2024-02-16T08:23:31;20.20;54.20
30899;DHT22;17914;52.484;13.424;2024-02-16T08:26:00;20.20;54.30
30899;DHT22;17914;52.484;13.424;2024-02-16T08:28:28;20.20;54.20
30899;DHT22;17914;52.484;13.424;2024-02-16T08:30:56;20.20;54.30
30899;DHT22;17914;52.484;13.424;2024-02-16T08:33:24;20.20;55.00
30899;DHT22;17914;52.484;13.424;2024-02-16T08:35:53;20.30;54.40
30899;DHT22;17914;52.484;13.424;2024-02-16T08:38:21;20.40;54.40
30899;DHT22;17914;52.484;13.424;2024-02-16T08:40:50;20.50;54.70
30899;DHT22;17914;52.484;13.424;2024-02-16T08:43:19;20.50;54.40
30899;DHT22;17914;52.484;13.424;2024-02-16T08:45:47;20.50;54.20
30899;DHT22;17914;52.484;13.424;2024-02-16T08:48:15;20.60;54.60
30899;DHT22;17914;52.484;13.424;2024-02-16T08:50:44;20.70;55.10
30899;DHT22;17914;52.484;13.424;2024-02-16T08:53:12;20.70;54.60
30899;DHT22;17914;52.484;13.424;2024-02-16T08:55:40;20.70;54.60
30899;DHT22;17914;52.484;13.424;2024-02-16T08:58:10;20.70;54.60
30899;DHT22;17914;52.484;13.424;2024-02-16T09:00:39;20.70;54.50
30899;DHT22;17914;52.484;13.424;2024-02-16T09:03:07;20.80;54.60
30899;DHT22;17914;52.484;13.424;2024-02-16T09:05:36;20.80;54.60
30899;DHT22;17914;52.484;13.424;2024-02-16T09:08:04;20.80;54.40
30899;DHT22;17914;52.484;13.424;2024-02-16T09:10:33;20.70;54.60
30899;DHT22;17914;52.484;13.424;2024-02-16T09:13:04;20.70;54.30
30899;DHT22;17914;52.484;13.424;2024-02-16T09:15:33;20.70;54.30
30899;DHT22;17914;52.484;13.424;2024-02-16T09:18:01;20.60;54.20
30899;DHT22;17914;52.484;13.424;2024-02-16T09:20:30;20.70;54.30
30899;DHT22;17914;52.484;13.424;2024-02-16T09:22:58;20.60;54.20
30899;DHT22;17914;52.484;13.424;2024-02-16T09:25:27;20.60;54.30
30899;DHT22;17914;52.484;13.424;2024-02-16T09:27:55;20.60;53.90
30899;DHT22;17914;52.484;13.424;2024-02-16T09:30:23;20.70;54.10
30899;DHT22;17914;52.484;13.424;2024-02-16T09:32:53;20.60;53.90
30899;DHT22;17914;52.484;13.424;2024-02-16T09:35:22;20.70;53.90
30899;DHT22;17914;52.484;13.424;2024-02-16T09:37:50;20.60;53.60
30899;DHT22;17914;52.484;13.424;2024-02-16T10:20:30;21.70;87.20
30899;DHT22;17914;52.484;13.424;2024-02-16T10:30:35;21.80;87.10
30899;DHT22;17914;52.484;13.424;2024-02-16T10:35:37;21.90;87.10
30899;DHT22;17914;52.484;13.424;2024-02-16T10:38:07;22.90;87.60
30899;DHT22;17914;52.484;13.424;2024-02-16T10:48:06;22.00;86.40
30899;DHT22;17914;52.484;13.424;2024-02-16T10:50:37;22.00;86.10
30899;DHT22;17914;52.484;13.424;2024-02-16T10:53:11;22.10;86.20
30899;DHT22;17914;52.484;13.424;2024-02-16T11:08:17;22.30;85.50
30899;DHT22;17914;52.484;13.424;2024-02-16T11:16:00;22.40;85.50
30899;DHT22;17914;52.484;13.424;2024-02-16T11:38:31;22.50;84.70
30899;DHT22;17914;52.484;13.424;2024-02-16T11:41:02;22.60;84.50
30899;DHT22;17914;52.484;13.424;2024-02-16T11:46:11;22.50;85.00
30899;DHT22;17914;52.484;13.424;2024-02-16T11:53:38;22.60;84.60
30899;DHT22;17914;52.484;13.424;2024-02-16T12:01:10;22.60;84.20
30899;DHT22;17914;52.484;13.424;2024-02-16T12:03:41;22.60;83.90
30899;DHT22;17914;52.484;13.424;2024-02-16T12:06:19;22.60;83.70
30899;DHT22;17914;52.484;13.424;2024-02-16T12:08:51;22.60;83.30
30899;DHT22;17914;52.484;13.424;2024-02-16T12:13:49;22.60;83.30
30899;DHT22;17914;52.484;13.424;2024-02-16T12:16:18;22.70;83.60
30899;DHT22;17914;52.484;13.424;2024-02-16T12:21:17;22.70;83.80
30899;DHT22;17914;52.484;13.424;2024-02-16T12:26:16;22.70;83.50
30899;DHT22;17914;52.484;13.424;2024-02-16T12:31:18;22.70;83.60
30899;DHT22;17914;52.484;13.424;2024-02-16T12:43:42;22.70;84.20
30899;DHT22;17914;52.484;13.424;2024-02-16T13:01:06;22.70;83.90
30899;DHT22;17914;52.484;13.424;2024-02-16T13:16:15;22.80;84.10
30899;DHT22;17914;52.484;13.424;2024-02-16T13:33:37;22.80;83.70
30899;DHT22;17914;52.484;13.424;2024-02-16T13:36:06;22.90;84.00
30899;DHT22;17914;52.484;13.424;2024-02-16T13:51:01;22.90;82.90
30899;DHT22;17914;52.484;13.424;2024-02-16T13:53:29;22.90;87.40
30899;DHT22;17914;52.484;13.424;2024-02-16T13:56:00;22.90;83.00
30899;DHT22;17914;52.484;13.424;2024-02-16T14:01:01;22.90;86.40
30899;DHT22;17914;52.484;13.424;2024-02-16T14:03:30;22.90;81.90
30899;DHT22;17914;52.484;13.424;2024-02-16T14:06:00;22.90;82.30
30899;DHT22;17914;52.484;13.424;2024-02-16T14:18:24;22.80;90.10
30899;DHT22;17914;52.484;13.424;2024-02-16T14:21:02;22.80;82.80
30899;DHT22;17914;52.484;13.424;2024-02-16T14:25:59;22.80;83.20
30899;DHT22;17914;52.484;13.424;2024-02-16T14:30:56;22.70;90.50
30899;DHT22;17914;52.484;13.424;2024-02-16T14:33:24;22.60;87.90
30899;DHT22;17914;52.484;13.424;2024-02-16T14:38:30;22.60;84.20
30899;DHT22;17914;52.484;13.424;2024-02-16T14:46:00;22.50;83.80
30899;DHT22;17914;52.484;13.424;2024-02-16T14:51:00;22.60;91.10
30899;DHT22;17914;52.484;13.424;2024-02-16T14:53:29;22.70;88.40
30899;DHT22;17914;52.484;13.424;2024-02-16T14:55:59;22.60;85.60
30899;DHT22;17914;52.484;13.424;2024-02-16T14:58:27;22.60;91.10
30899;DHT22;17914;52.484;13.424;2024-02-16T15:00:55;22.60;85.90
30899;DHT22;17914;52.484;13.424;2024-02-16T15:10:52;22.50;84.90
30899;DHT22;17914;52.484;13.424;2024-02-16T15:13:20;22.50;91.20
30899;DHT22;17914;52.484;13.424;2024-02-16T15:23:20;22.50;90.90
30899;DHT22;17914;52.484;13.424;2024-02-16T15:28:18;22.50;88.50
30899;DHT22;17914;52.484;13.424;2024-02-16T15:30:46;22.40;89.10
30899;DHT22;17914;52.484;13.424;2024-02-16T15:35:43;22.40;89.10
30899;DHT22;17914;52.484;13.424;2024-02-16T15:43:07;21.30;83.30
30899;DHT22;17914;52.484;13.424;2024-02-16T15:45:39;22.40;91.20
30899;DHT22;17914;52.484;13.424;2024-02-16T15:48:09;22.30;91.20
30899;DHT22;17914;52.484;13.424;2024-02-16T15:53:07;22.20;91.20
30899;DHT22;17914;52.484;13.424;2024-02-16T16:03:03;22.10;88.40
30899;DHT22;17914;52.484;13.424;2024-02-16T16:12:59;22.30;85.30
30899;DHT22;17914;52.484;13.424;2024-02-16T16:20:27;22.30;86.00
30899;DHT22;17914;52.484;13.424;2024-02-16T16:25:23;22.20;90.00
30899;DHT22;17914;52.484;13.424;2024-02-16T16:30:20;22.20;90.30
30899;DHT22;17914;52.484;13.424;2024-02-16T16:32:48;22.40;90.70
30899;DHT22;17914;52.484;13.424;2024-02-16T16:37:46;22.20;85.50
30899;DHT22;17914;52.484;13.424;2024-02-16T16:40:14;22.20;91.40
30899;DHT22;17914;52.484;13.424;2024-02-16T16:42:42;22.20;91.20
30899;DHT22;17914;52.484;13.424;2024-02-16T16:47:39;22.20;89.50
30899;DHT22;17914;52.484;13.424;2024-02-16T16:55:08;22.20;90.20
30899;DHT22;17914;52.484;13.424;2024-02-16T16:57:36;22.10;89.00
30899;DHT22;17914;52.484;13.424;2024-02-16T17:00:05;22.30;86.90
30899;DHT22;17914;52.484;13.424;2024-02-16T17:05:02;22.40;84.60
30899;DHT22;17914;52.484;13.424;2024-02-16T17:12:29;22.50;85.20
30899;DHT22;17914;52.484;13.424;2024-02-16T17:17:26;22.60;85.10
30899;DHT22;17914;52.484;13.424;2024-02-16T17:29:51;22.60;85.40
30899;DHT22;17914;52.484;13.424;2024-02-16T17:39:45;22.80;86.90
30899;DHT22;17914;52.484;13.424;2024-02-16T17:47:13;22.80;84.00
30899;DHT22;17914;52.484;13.424;2024-02-16T17:49:41;22.80;85.70
30899;DHT22;17914;52.484;13.424;2024-02-16T17:52:10;22.80;83.20
30899;DHT22;17914;52.484;13.424;2024-02-16T17:59:35;22.80;85.90
30899;DHT22;17914;52.484;13.424;2024-02-16T18:04:52;22.90;83.60
30899;DHT22;17914;52.484;13.424;2024-02-16T18:07:20;22.90;89.70
30899;DHT22;17914;52.484;13.424;2024-02-16T18:09:48;22.90;89.00
30899;DHT22;17914;52.484;13.424;2024-02-16T18:17:14;22.90;90.10
30899;DHT22;17914;52.484;13.424;2024-02-16T18:22:13;22.90;83.00
30899;DHT22;17914;52.484;13.424;2024-02-16T18:34:38;22.90;84.00
30899;DHT22;17914;52.484;13.424;2024-02-16T18:37:06;23.20;88.00
30899;DHT22;17914;52.484;13.424;2024-02-16T18:39:36;22.90;90.00
30899;DHT22;17914;52.484;13.424;2024-02-16T18:42:05;23.00;89.10
30899;DHT22;17914;52.484;13.424;2024-02-16T18:52:00;23.10;89.20
30899;DHT22;17914;52.484;13.424;2024-02-16T18:56:57;23.10;89.20
30899;DHT22;17914;52.484;13.424;2024-02-16T18:59:25;22.90;89.30
30899;DHT22;17914;52.484;13.424;2024-02-16T19:04:27;23.20;88.90
30899;DHT22;17914;52.484;13.424;2024-02-16T19:06:56;23.10;86.80
30899;DHT22;17914;52.484;13.424;2024-02-16T19:14:23;23.20;84.10
30899;DHT22;17914;52.484;13.424;2024-02-16T19:24:18;23.00;88.50
30899;DHT22;17914;52.484;13.424;2024-02-16T19:26:59;23.10;88.60
30899;DHT22;17914;52.484;13.424;2024-02-16T19:29:28;23.10;81.30
30899;DHT22;17914;52.484;13.424;2024-02-16T19:36:53;23.10;88.30
30899;DHT22;17914;52.484;13.424;2024-02-16T19:39:21;23.10;87.90
30899;DHT22;17914;52.484;13.424;2024-02-16T19:41:49;23.10;87.80
30899;DHT22;17914;52.484;13.424;2024-02-16T19:44:17;23.10;87.70
30899;DHT22;17914;52.484;13.424;2024-02-16T19:46:49;23.20;80.70
30899;DHT22;17914;52.484;13.424;2024-02-16T19:49:17;23.20;87.00
30899;DHT22;17914;52.484;13.424;2024-02-16T19:54:15;23.10;87.40
30899;DHT22;17914;52.484;13.424;2024-02-16T19:59:14;23.10;87.60
30899;DHT22;17914;52.484;13.424;2024-02-16T20:01:43;23.00;87.50
30899;DHT22;17914;52.484;13.424;2024-02-16T20:04:12;23.10;87.40
30899;DHT22;17914;52.484;13.424;2024-02-16T20:06:41;23.10;87.50
30899;DHT22;17914;52.484;13.424;2024-02-16T20:09:09;23.10;87.90
30899;DHT22;17914;52.484;13.424;2024-02-16T20:11:38;23.30;88.10
30899;DHT22;17914;52.484;13.424;2024-02-16T20:14:06;23.10;87.80
30899;DHT22;17914;52.484;13.424;2024-02-16T20:16:36;23.10;87.90
30899;DHT22;17914;52.484;13.424;2024-02-16T20:19:05;23.10;88.70
30899;DHT22;17914;52.484;13.424;2024-02-16T20:21:36;22.90;88.10
30899;DHT22;17914;52.484;13.424;2024-02-16T20:24:05;23.00;88.00
30899;DHT22;17914;52.484;13.424;2024-02-16T20:26:34;23.00;88.00
30899;DHT22;17914;52.484;13.424;2024-02-16T20:29:02;23.10;87.60
30899;DHT22;17914;52.484;13.424;2024-02-16T20:31:30;23.10;87.60
30899;DHT22;17914;52.484;13.424;2024-02-16T20:33:58;23.10;87.50
30899;DHT22;17914;52.484;13.424;2024-02-16T20:38:56;23.10;82.10
30899;DHT22;17914;52.484;13.424;2024-02-16T20:56:16;23.30;83.50
30899;DHT22;17914;52.484;13.424;2024-02-16T21:03:41;23.20;52.20
30899;DHT22;17914;52.484;13.424;2024-02-16T21:06:09;23.20;52.70
30899;DHT22;17914;52.484;13.424;2024-02-16T21:08:37;23.10;52.80
30899;DHT22;17914;52.484;13.424;2024-02-16T21:11:09;23.10;52.90
30899;DHT22;17914;52.484;13.424;2024-02-16T21:13:39;23.10;52.90
30899;DHT22;17914;52.484;13.424;2024-02-16T21:16:07;23.00;53.00
30899;DHT22;17914;52.484;13.424;2024-02-16T21:18:35;23.00;53.20
30899;DHT22;17914;52.484;13.424;2024-02-16T21:21:04;23.00;53.10
30899;DHT22;17914;52.484;13.424;2024-02-16T21:23:32;23.00;53.10
30899;DHT22;17914;52.484;13.424;2024-02-16T21:26:00;23.00;53.10
30899;DHT22;17914;52.484;13.424;2024-02-16T21:28:28;23.00;53.00
30899;DHT22;17914;52.484;13.424;2024-02-16T21:30:58;23.00;53.00
30899;DHT22;17914;52.484;13.424;2024-02-16T21:33:26;23.00;52.90
30899;DHT22;17914;52.484;13.424;2024-02-16T21:35:54;23.00;53.10
30899;DHT22;17914;52.484;13.424;2024-02-16T21:38:25;23.00;53.00
30899;DHT22;17914;52.484;13.424;2024-02-16T21:40:53;22.90;53.00
30899;DHT22;17914;52.484;13.424;2024-02-16T21:43:22;22.90;53.20
30899;DHT22;17914;52.484;13.424;2024-02-16T21:45:50;23.00;53.10
30899;DHT22;17914;52.484;13.424;2024-02-16T21:48:19;23.00;53.00
30899;DHT22;17914;52.484;13.424;2024-02-16T21:50:58;23.00;53.10
30899;DHT22;17914;52.484;13.424;2024-02-16T21:53:27;22.90;53.00